sensor_id;sensor_type;location;lat;lon;timestamp;P1;durP1;ratioP1;P2;durP2;ratioP2
17614;SDS011;8926;49.720;6.576;2023-03-23T00:02:25;0.50;;;0.50;;
17614;SDS011;8926;49.720;6.576;2023-03-23T00:04:54;1.00;;;0.90;;
17614;SDS011;8926;49.720;6.576;2023-03-23T00:07:20;0.70;;;0.70;;
17614;SDS011;8926;49.720;6.576;2023-03-23T00:09:50;1.07;;;0.80;;
17614;SDS011;8926;49.720;6.576;2023-03-23T00:12:26;1.30;;;1.20;;
17614;SDS011;8926;49.720;6.576;2023-03-23T00:15:02;0.73;;;0.70;;
17614;SDS011;8926;49.720;6.576;2023-03-23T00:17:30;0.67;;;0.67;;
17614;SDS011;8926;49.720;6.576;2023-03-23T00:19:58;0.70;;;0.70;;
17614;SDS011;8926;49.720;6.576;2023-03-23T00:22:23;0.73;;;0.73;;
17614;SDS011;8926;49.720;6.576;2023-03-23T00:24:50;0.70;;;0.70;;
17614;SDS011;8926;49.720;6.576;2023-03-23T00:27:16;0.70;;;0.70;;
17614;SDS011;8926;49.720;6.576;2023-03-23T00:29:42;0.60;;;0.60;;
17614;SDS011;8926;49.720;6.576;2023-03-23T00:32:09;0.60;;;0.60;;
17614;SDS011;8926;49.720;6.576;2023-03-23T00:34:37;0.70;;;0.70;;
17614;SDS011;8926;49.720;6.576;2023-03-23T00:37:05;0.70;;;0.70;;
17614;SDS011;8926;49.720;6.576;2023-03-23T00:39:33;0.77;;;0.77;;
17614;SDS011;8926;49.720;6.576;2023-03-23T00:42:01;0.60;;;0.60;;
17614;SDS011;8926;49.720;6.576;2023-03-23T00:44:28;0.80;;;0.80;;
17614;SDS011;8926;49.720;6.576;2023-03-23T00:46:55;0.80;;;0.70;;
17614;SDS011;8926;49.720;6.576;2023-03-23T00:49:21;0.80;;;0.80;;
17614;SDS011;8926;49.720;6.576;2023-03-23T00:51:54;0.80;;;0.80;;
17614;SDS011;8926;49.720;6.576;2023-03-23T00:54:22;0.60;;;0.60;;
17614;SDS011;8926;49.720;6.576;2023-03-23T00:56:48;0.73;;;0.73;;
17614;SDS011;8926;49.720;6.576;2023-03-23T00:59:14;0.63;;;0.63;;
17614;SDS011;8926;49.720;6.576;2023-03-23T01:01:40;1.83;;;0.73;;
17614;SDS011;8926;49.720;6.576;2023-03-23T01:04:05;0.60;;;0.60;;
17614;SDS011;8926;49.720;6.576;2023-03-23T01:06:33;0.43;;;0.43;;
17614;SDS011;8926;49.720;6.576;2023-03-23T01:09:03;0.50;;;0.50;;
17614;SDS011;8926;49.720;6.576;2023-03-23T01:11:30;0.67;;;0.67;;
17614;SDS011;8926;49.720;6.576;2023-03-23T01:13:56;0.67;;;0.63;;
17614;SDS011;8926;49.720;6.576;2023-03-23T01:16:22;0.50;;;0.50;;
17614;SDS011;8926;49.720;6.576;2023-03-23T01:18:47;2.77;;;0.50;;
17614;SDS011;8926;49.720;6.576;2023-03-23T01:21:13;0.70;;;0.70;;
17614;SDS011;8926;49.720;6.576;2023-03-23T01:23:41;0.70;;;0.70;;
17614;SDS011;8926;49.720;6.576;2023-03-23T01:26:08;0.60;;;0.60;;
17614;SDS011;8926;49.720;6.576;2023-03-23T01:28:35;0.60;;;0.60;;
17614;SDS011;8926;49.720;6.576;2023-03-23T01:31:03;0.60;;;0.60;;
17614;SDS011;8926;49.720;6.576;2023-03-23T01:33:30;0.50;;;0.50;;
17614;SDS011;8926;49.720;6.576;2023-03-23T01:35:57;0.27;;;0.27;;
17614;SDS011;8926;49.720;6.576;2023-03-23T01:38:23;0.70;;;0.70;;
17614;SDS011;8926;49.720;6.576;2023-03-23T01:40:48;0.50;;;0.50;;
17614;SDS011;8926;49.720;6.576;2023-03-23T01:43:14;0.50;;;0.50;;
17614;SDS011;8926;49.720;6.576;2023-03-23T01:45:40;0.50;;;0.50;;
17614;SDS011;8926;49.720;6.576;2023-03-23T01:48:17;0.60;;;0.60;;
17614;SDS011;8926;49.720;6.576;2023-03-23T01:53:30;0.80;;;0.80;;
17614;SDS011;8926;49.720;6.576;2023-03-23T01:56:03;0.77;;;0.77;;
17614;SDS011;8926;49.720;6.576;2023-03-23T01:58:31;0.70;;;0.70;;
17614;SDS011;8926;49.720;6.576;2023-03-23T02:00:58;0.83;;;0.80;;
17614;SDS011;8926;49.720;6.576;2023-03-23T02:03:28;0.60;;;0.60;;
17614;SDS011;8926;49.720;6.576;2023-03-23T02:05:57;0.67;;;0.67;;
17614;SDS011;8926;49.720;6.576;2023-03-23T02:08:23;0.70;;;0.70;;
17614;SDS011;8926;49.720;6.576;2023-03-23T02:10:49;0.70;;;0.70;;
17614;SDS011;8926;49.720;6.576;2023-03-23T02:13:14;0.90;;;0.90;;
17614;SDS011;8926;49.720;6.576;2023-03-23T02:15:45;0.83;;;0.80;;
17614;SDS011;8926;49.720;6.576;2023-03-23T02:18:27;1.20;;;1.10;;
17614;SDS011;8926;49.720;6.576;2023-03-23T02:23:46;0.90;;;0.90;;
17614;SDS011;8926;49.720;6.576;2023-03-23T02:29:22;3.13;;;1.20;;
17614;SDS011;8926;49.720;6.576;2023-03-23T02:32:03;1.73;;;1.13;;
17614;SDS011;8926;49.720;6.576;2023-03-23T02:34:43;1.20;;;1.10;;
17614;SDS011;8926;49.720;6.576;2023-03-23T02:40:02;1.50;;;1.40;;
17614;SDS011;8926;49.720;6.576;2023-03-23T02:42:33;1.17;;;1.00;;
17614;SDS011;8926;49.720;6.576;2023-03-23T02:45:03;1.50;;;1.40;;
17614;SDS011;8926;49.720;6.576;2023-03-23T02:47:30;1.60;;;1.50;;
17614;SDS011;8926;49.720;6.576;2023-03-23T02:49:58;1.53;;;1.43;;
17614;SDS011;8926;49.720;6.576;2023-03-23T02:52:26;1.50;;;1.40;;
17614;SDS011;8926;49.720;6.576;2023-03-23T02:54:54;1.80;;;1.70;;
17614;SDS011;8926;49.720;6.576;2023-03-23T02:57:22;1.47;;;1.40;;
17614;SDS011;8926;49.720;6.576;2023-03-23T02:59:49;1.23;;;1.10;;
17614;SDS011;8926;49.720;6.576;2023-03-23T03:05:35;1.50;;;1.40;;
17614;SDS011;8926;49.720;6.576;2023-03-23T03:10:46;1.30;;;1.20;;
17614;SDS011;8926;49.720;6.576;2023-03-23T03:13:23;1.67;;;1.57;;
17614;SDS011;8926;49.720;6.576;2023-03-23T03:15:51;2.60;;;1.77;;
17614;SDS011;8926;49.720;6.576;2023-03-23T03:18:26;2.27;;;1.47;;
17614;SDS011;8926;49.720;6.576;2023-03-23T03:21:02;2.30;;;1.83;;
17614;SDS011;8926;49.720;6.576;2023-03-23T03:23:32;1.90;;;1.80;;
17614;SDS011;8926;49.720;6.576;2023-03-23T03:25:58;2.77;;;2.13;;
17614;SDS011;8926;49.720;6.576;2023-03-23T03:28:26;1.73;;;1.63;;
17614;SDS011;8926;49.720;6.576;2023-03-23T03:30:56;1.70;;;1.60;;
17614;SDS011;8926;49.720;6.576;2023-03-23T03:33:25;1.70;;;1.60;;
17614;SDS011;8926;49.720;6.576;2023-03-23T03:35:55;2.23;;;1.90;;
17614;SDS011;8926;49.720;6.576;2023-03-23T03:38:24;1.50;;;1.40;;
17614;SDS011;8926;49.720;6.576;2023-03-23T03:40:50;1.70;;;1.60;;
17614;SDS011;8926;49.720;6.576;2023-03-23T03:43:15;1.77;;;1.67;;
17614;SDS011;8926;49.720;6.576;2023-03-23T03:45:41;1.70;;;1.60;;
17614;SDS011;8926;49.720;6.576;2023-03-23T03:48:07;2.60;;;2.00;;
17614;SDS011;8926;49.720;6.576;2023-03-23T03:50:32;2.73;;;1.80;;
17614;SDS011;8926;49.720;6.576;2023-03-23T03:52:57;2.33;;;1.63;;
17614;SDS011;8926;49.720;6.576;2023-03-23T03:55:23;2.00;;;1.90;;
17614;SDS011;8926;49.720;6.576;2023-03-23T03:57:48;2.60;;;1.70;;
17614;SDS011;8926;49.720;6.576;2023-03-23T04:00:14;2.00;;;1.80;;
17614;SDS011;8926;49.720;6.576;2023-03-23T04:02:44;2.00;;;1.70;;
17614;SDS011;8926;49.720;6.576;2023-03-23T04:05:16;2.10;;;2.00;;
17614;SDS011;8926;49.720;6.576;2023-03-23T04:07:43;1.87;;;1.77;;
17614;SDS011;8926;49.720;6.576;2023-03-23T04:10:09;1.83;;;1.73;;
17614;SDS011;8926;49.720;6.576;2023-03-23T04:12:36;1.50;;;1.40;;
17614;SDS011;8926;49.720;6.576;2023-03-23T04:15:03;1.67;;;1.57;;
17614;SDS011;8926;49.720;6.576;2023-03-23T04:17:29;1.87;;;1.77;;
17614;SDS011;8926;49.720;6.576;2023-03-23T04:19:54;2.07;;;1.97;;
17614;SDS011;8926;49.720;6.576;2023-03-23T04:22:22;2.33;;;1.73;;
17614;SDS011;8926;49.720;6.576;2023-03-23T04:24:49;1.70;;;1.60;;
17614;SDS011;8926;49.720;6.576;2023-03-23T04:27:16;1.90;;;1.80;;
17614;SDS011;8926;49.720;6.576;2023-03-23T04:29:42;1.90;;;1.80;;
17614;SDS011;8926;49.720;6.576;2023-03-23T04:32:07;1.93;;;1.83;;
17614;SDS011;8926;49.720;6.576;2023-03-23T04:34:32;2.17;;;1.97;;
17614;SDS011;8926;49.720;6.576;2023-03-23T04:37:00;1.50;;;1.40;;
17614;SDS011;8926;49.720;6.576;2023-03-23T04:39:25;1.90;;;1.73;;
17614;SDS011;8926;49.720;6.576;2023-03-23T04:41:54;1.30;;;1.20;;
17614;SDS011;8926;49.720;6.576;2023-03-23T04:44:19;2.13;;;2.00;;
17614;SDS011;8926;49.720;6.576;2023-03-23T04:46:46;1.73;;;1.63;;
17614;SDS011;8926;49.720;6.576;2023-03-23T04:49:14;1.70;;;1.60;;
17614;SDS011;8926;49.720;6.576;2023-03-23T04:51:45;1.83;;;1.70;;
17614;SDS011;8926;49.720;6.576;2023-03-23T04:54:11;2.17;;;1.77;;
17614;SDS011;8926;49.720;6.576;2023-03-23T04:56:37;1.90;;;1.80;;
17614;SDS011;8926;49.720;6.576;2023-03-23T04:59:03;2.40;;;1.80;;
17614;SDS011;8926;49.720;6.576;2023-03-23T05:01:28;1.80;;;1.70;;
17614;SDS011;8926;49.720;6.576;2023-03-23T05:03:54;1.53;;;1.43;;
17614;SDS011;8926;49.720;6.576;2023-03-23T05:06:19;1.87;;;1.77;;
17614;SDS011;8926;49.720;6.576;2023-03-23T05:08:45;2.30;;;1.60;;
17614;SDS011;8926;49.720;6.576;2023-03-23T05:11:10;1.70;;;1.60;;
17614;SDS011;8926;49.720;6.576;2023-03-23T05:13:36;1.40;;;1.30;;
17614;SDS011;8926;49.720;6.576;2023-03-23T05:16:05;1.07;;;1.07;;
17614;SDS011;8926;49.720;6.576;2023-03-23T05:18:31;1.33;;;1.23;;
17614;SDS011;8926;49.720;6.576;2023-03-23T05:21:03;1.67;;;1.57;;
17614;SDS011;8926;49.720;6.576;2023-03-23T05:23:29;2.40;;;1.70;;
17614;SDS011;8926;49.720;6.576;2023-03-23T05:25:56;1.50;;;1.40;;
17614;SDS011;8926;49.720;6.576;2023-03-23T05:28:25;3.07;;;1.87;;
17614;SDS011;8926;49.720;6.576;2023-03-23T05:30:51;1.60;;;1.50;;
17614;SDS011;8926;49.720;6.576;2023-03-23T05:33:17;2.00;;;1.90;;
17614;SDS011;8926;49.720;6.576;2023-03-23T05:35:42;2.13;;;1.90;;
17614;SDS011;8926;49.720;6.576;2023-03-23T05:38:08;1.70;;;1.60;;
17614;SDS011;8926;49.720;6.576;2023-03-23T05:40:33;1.80;;;1.70;;
17614;SDS011;8926;49.720;6.576;2023-03-23T05:42:58;2.17;;;2.07;;
17614;SDS011;8926;49.720;6.576;2023-03-23T05:45:24;2.10;;;1.90;;
17614;SDS011;8926;49.720;6.576;2023-03-23T05:47:51;1.80;;;1.70;;
17614;SDS011;8926;49.720;6.576;2023-03-23T05:50:16;1.80;;;1.70;;
17614;SDS011;8926;49.720;6.576;2023-03-23T05:52:42;2.10;;;2.00;;
17614;SDS011;8926;49.720;6.576;2023-03-23T05:55:08;2.33;;;2.13;;
17614;SDS011;8926;49.720;6.576;2023-03-23T05:57:34;2.10;;;1.90;;
17614;SDS011;8926;49.720;6.576;2023-03-23T06:00:00;1.93;;;1.77;;
17614;SDS011;8926;49.720;6.576;2023-03-23T06:02:30;2.53;;;2.33;;
17614;SDS011;8926;49.720;6.576;2023-03-23T06:04:56;2.10;;;1.90;;
17614;SDS011;8926;49.720;6.576;2023-03-23T06:07:23;1.60;;;1.50;;
17614;SDS011;8926;49.720;6.576;2023-03-23T06:09:49;1.60;;;1.50;;
17614;SDS011;8926;49.720;6.576;2023-03-23T06:12:15;2.07;;;1.93;;
17614;SDS011;8926;49.720;6.576;2023-03-23T06:14:44;2.87;;;2.07;;
17614;SDS011;8926;49.720;6.576;2023-03-23T06:17:10;2.40;;;2.00;;
17614;SDS011;8926;49.720;6.576;2023-03-23T06:19:35;1.97;;;1.87;;
17614;SDS011;8926;49.720;6.576;2023-03-23T06:22:01;1.80;;;1.70;;
17614;SDS011;8926;49.720;6.576;2023-03-23T06:24:27;1.90;;;1.80;;
17614;SDS011;8926;49.720;6.576;2023-03-23T06:26:52;1.87;;;1.77;;
17614;SDS011;8926;49.720;6.576;2023-03-23T06:29:18;1.80;;;1.70;;
17614;SDS011;8926;49.720;6.576;2023-03-23T06:31:44;2.20;;;2.07;;
17614;SDS011;8926;49.720;6.576;2023-03-23T06:34:12;1.93;;;1.80;;
17614;SDS011;8926;49.720;6.576;2023-03-23T06:36:38;2.00;;;1.87;;
17614;SDS011;8926;49.720;6.576;2023-03-23T06:39:04;2.20;;;2.10;;
17614;SDS011;8926;49.720;6.576;2023-03-23T06:41:30;1.80;;;1.70;;
17614;SDS011;8926;49.720;6.576;2023-03-23T06:43:57;1.77;;;1.67;;
17614;SDS011;8926;49.720;6.576;2023-03-23T06:46:23;1.60;;;1.50;;
17614;SDS011;8926;49.720;6.576;2023-03-23T06:48:48;3.63;;;1.97;;
17614;SDS011;8926;49.720;6.576;2023-03-23T06:51:14;1.87;;;1.70;;
17614;SDS011;8926;49.720;6.576;2023-03-23T06:53:41;1.57;;;1.47;;
17614;SDS011;8926;49.720;6.576;2023-03-23T06:56:07;1.10;;;1.10;;
17614;SDS011;8926;49.720;6.576;2023-03-23T06:58:32;1.60;;;1.50;;
17614;SDS011;8926;49.720;6.576;2023-03-23T07:00:58;1.97;;;1.87;;
17614;SDS011;8926;49.720;6.576;2023-03-23T07:03:23;2.13;;;1.87;;
17614;SDS011;8926;49.720;6.576;2023-03-23T07:05:49;1.80;;;1.70;;
17614;SDS011;8926;49.720;6.576;2023-03-23T07:08:15;1.63;;;1.53;;
17614;SDS011;8926;49.720;6.576;2023-03-23T07:10:40;1.63;;;1.53;;
17614;SDS011;8926;49.720;6.576;2023-03-23T07:13:06;2.17;;;1.97;;
17614;SDS011;8926;49.720;6.576;2023-03-23T07:15:31;9.27;;;4.67;;
17614;SDS011;8926;49.720;6.576;2023-03-23T07:17:57;6.17;;;3.57;;
17614;SDS011;8926;49.720;6.576;2023-03-23T07:20:22;3.90;;;3.20;;
17614;SDS011;8926;49.720;6.576;2023-03-23T07:22:47;4.40;;;4.00;;
17614;SDS011;8926;49.720;6.576;2023-03-23T07:25:13;4.37;;;3.57;;
17614;SDS011;8926;49.720;6.576;2023-03-23T07:27:38;4.87;;;3.13;;
17614;SDS011;8926;49.720;6.576;2023-03-23T07:30:04;6.20;;;4.63;;
17614;SDS011;8926;49.720;6.576;2023-03-23T07:32:30;7.03;;;4.60;;
17614;SDS011;8926;49.720;6.576;2023-03-23T07:34:56;2.40;;;2.20;;
17614;SDS011;8926;49.720;6.576;2023-03-23T07:37:21;1.90;;;1.80;;
17614;SDS011;8926;49.720;6.576;2023-03-23T07:39:47;2.00;;;1.80;;
17614;SDS011;8926;49.720;6.576;2023-03-23T07:42:13;1.83;;;1.70;;
17614;SDS011;8926;49.720;6.576;2023-03-23T07:44:38;2.90;;;2.53;;
17614;SDS011;8926;49.720;6.576;2023-03-23T07:47:04;2.83;;;2.60;;
17614;SDS011;8926;49.720;6.576;2023-03-23T07:49:29;2.80;;;2.60;;
17614;SDS011;8926;49.720;6.576;2023-03-23T07:51:55;2.40;;;2.20;;
17614;SDS011;8926;49.720;6.576;2023-03-23T07:54:21;1.80;;;1.40;;
17614;SDS011;8926;49.720;6.576;2023-03-23T07:56:46;1.43;;;1.33;;
17614;SDS011;8926;49.720;6.576;2023-03-23T07:59:12;1.63;;;1.30;;
17614;SDS011;8926;49.720;6.576;2023-03-23T08:01:38;1.00;;;1.00;;
17614;SDS011;8926;49.720;6.576;2023-03-23T08:04:04;1.27;;;1.20;;
17614;SDS011;8926;49.720;6.576;2023-03-23T08:06:31;1.47;;;1.37;;
17614;SDS011;8926;49.720;6.576;2023-03-23T08:08:58;1.43;;;1.33;;
17614;SDS011;8926;49.720;6.576;2023-03-23T08:11:24;2.60;;;1.40;;
17614;SDS011;8926;49.720;6.576;2023-03-23T08:13:50;1.50;;;1.40;;
17614;SDS011;8926;49.720;6.576;2023-03-23T08:16:16;1.60;;;1.30;;
17614;SDS011;8926;49.720;6.576;2023-03-23T08:18:41;1.63;;;1.33;;
17614;SDS011;8926;49.720;6.576;2023-03-23T08:21:07;1.83;;;1.60;;
17614;SDS011;8926;49.720;6.576;2023-03-23T08:23:34;2.67;;;1.30;;
17614;SDS011;8926;49.720;6.576;2023-03-23T08:26:01;1.50;;;1.40;;
17614;SDS011;8926;49.720;6.576;2023-03-23T08:28:28;1.50;;;1.40;;
17614;SDS011;8926;49.720;6.576;2023-03-23T08:30:53;2.20;;;1.70;;
17614;SDS011;8926;49.720;6.576;2023-03-23T08:33:19;1.80;;;1.50;;
17614;SDS011;8926;49.720;6.576;2023-03-23T08:35:53;1.50;;;1.40;;
17614;SDS011;8926;49.720;6.576;2023-03-23T08:38:22;1.63;;;1.10;;
17614;SDS011;8926;49.720;6.576;2023-03-23T08:40:48;1.70;;;1.23;;
17614;SDS011;8926;49.720;6.576;2023-03-23T08:43:15;1.47;;;1.37;;
17614;SDS011;8926;49.720;6.576;2023-03-23T08:45:40;1.33;;;1.20;;
17614;SDS011;8926;49.720;6.576;2023-03-23T08:48:06;1.63;;;1.30;;
17614;SDS011;8926;49.720;6.576;2023-03-23T08:50:32;1.37;;;1.17;;
17614;SDS011;8926;49.720;6.576;2023-03-23T08:52:58;1.00;;;0.90;;
17614;SDS011;8926;49.720;6.576;2023-03-23T08:55:23;1.87;;;1.67;;
17614;SDS011;8926;49.720;6.576;2023-03-23T08:57:49;1.30;;;1.10;;
17614;SDS011;8926;49.720;6.576;2023-03-23T09:00:16;1.47;;;1.37;;
17614;SDS011;8926;49.720;6.576;2023-03-23T09:02:45;1.70;;;1.30;;
17614;SDS011;8926;49.720;6.576;2023-03-23T09:05:12;1.00;;;1.00;;
17614;SDS011;8926;49.720;6.576;2023-03-23T09:07:39;0.87;;;0.87;;
17614;SDS011;8926;49.720;6.576;2023-03-23T09:10:06;0.97;;;0.90;;
17614;SDS011;8926;49.720;6.576;2023-03-23T09:12:32;1.43;;;1.33;;
17614;SDS011;8926;49.720;6.576;2023-03-23T09:14:58;1.17;;;1.10;;
17614;SDS011;8926;49.720;6.576;2023-03-23T09:17:23;1.30;;;1.20;;
17614;SDS011;8926;49.720;6.576;2023-03-23T09:19:48;1.47;;;1.23;;
17614;SDS011;8926;49.720;6.576;2023-03-23T09:22:14;1.73;;;1.03;;
17614;SDS011;8926;49.720;6.576;2023-03-23T09:24:41;2.37;;;1.30;;
17614;SDS011;8926;49.720;6.576;2023-03-23T09:27:06;1.27;;;1.10;;
17614;SDS011;8926;49.720;6.576;2023-03-23T09:29:32;1.10;;;1.00;;
17614;SDS011;8926;49.720;6.576;2023-03-23T09:31:57;1.30;;;1.20;;
17614;SDS011;8926;49.720;6.576;2023-03-23T09:34:23;0.93;;;0.93;;
17614;SDS011;8926;49.720;6.576;2023-03-23T09:36:48;1.10;;;1.00;;
17614;SDS011;8926;49.720;6.576;2023-03-23T09:39:14;1.03;;;1.00;;
17614;SDS011;8926;49.720;6.576;2023-03-23T09:50:09;1.47;;;1.00;;
17614;SDS011;8926;49.720;6.576;2023-03-23T09:55:22;1.77;;;1.00;;
17614;SDS011;8926;49.720;6.576;2023-03-23T10:00:33;0.80;;;0.80;;
17614;SDS011;8926;49.720;6.576;2023-03-23T10:03:00;1.13;;;0.90;;
17614;SDS011;8926;49.720;6.576;2023-03-23T10:05:36;1.50;;;0.90;;
17614;SDS011;8926;49.720;6.576;2023-03-23T10:08:13;1.00;;;0.90;;
17614;SDS011;8926;49.720;6.576;2023-03-23T10:13:20;1.17;;;0.90;;
17614;SDS011;8926;49.720;6.576;2023-03-23T10:16:08;0.80;;;0.80;;
17614;SDS011;8926;49.720;6.576;2023-03-23T10:18:48;0.70;;;0.70;;
17614;SDS011;8926;49.720;6.576;2023-03-23T10:21:19;0.80;;;0.80;;
17614;SDS011;8926;49.720;6.576;2023-03-23T10:24:20;2.00;;;1.10;;
17614;SDS011;8926;49.720;6.576;2023-03-23T10:26:50;1.07;;;0.70;;
17614;SDS011;8926;49.720;6.576;2023-03-23T10:29:20;0.93;;;0.70;;
17614;SDS011;8926;49.720;6.576;2023-03-23T10:31:51;0.97;;;0.70;;
17614;SDS011;8926;49.720;6.576;2023-03-23T10:39:31;0.87;;;0.87;;
17614;SDS011;8926;49.720;6.576;2023-03-23T10:42:07;0.97;;;0.87;;
17614;SDS011;8926;49.720;6.576;2023-03-23T10:44:34;1.23;;;0.83;;
17614;SDS011;8926;49.720;6.576;2023-03-23T10:47:01;0.70;;;0.70;;
17614;SDS011;8926;49.720;6.576;2023-03-23T10:49:31;1.07;;;0.90;;
17614;SDS011;8926;49.720;6.576;2023-03-23T10:54:57;0.60;;;0.60;;
17614;SDS011;8926;49.720;6.576;2023-03-23T10:57:28;0.70;;;0.70;;
17614;SDS011;8926;49.720;6.576;2023-03-23T10:59:58;1.00;;;0.90;;
17614;SDS011;8926;49.720;6.576;2023-03-23T11:02:35;1.40;;;0.70;;
17614;SDS011;8926;49.720;6.576;2023-03-23T11:05:04;1.97;;;0.90;;
17614;SDS011;8926;49.720;6.576;2023-03-23T11:07:38;1.30;;;0.70;;
17614;SDS011;8926;49.720;6.576;2023-03-23T11:10:06;0.77;;;0.77;;
17614;SDS011;8926;49.720;6.576;2023-03-23T11:12:45;1.03;;;1.00;;
17614;SDS011;8926;49.720;6.576;2023-03-23T11:15:27;0.93;;;0.87;;
17614;SDS011;8926;49.720;6.576;2023-03-23T11:17:58;0.97;;;0.97;;
17614;SDS011;8926;49.720;6.576;2023-03-23T11:20:52;1.10;;;0.73;;
17614;SDS011;8926;49.720;6.576;2023-03-23T11:23:26;0.93;;;0.90;;
17614;SDS011;8926;49.720;6.576;2023-03-23T11:28:43;1.37;;;1.00;;
17614;SDS011;8926;49.720;6.576;2023-03-23T11:31:12;1.50;;;1.13;;
17614;SDS011;8926;49.720;6.576;2023-03-23T11:33:47;1.43;;;0.90;;
17614;SDS011;8926;49.720;6.576;2023-03-23T11:36:50;1.07;;;0.97;;
17614;SDS011;8926;49.720;6.576;2023-03-23T11:39:20;1.10;;;0.90;;
17614;SDS011;8926;49.720;6.576;2023-03-23T11:41:51;1.10;;;1.00;;
17614;SDS011;8926;49.720;6.576;2023-03-23T11:44:17;1.57;;;1.20;;
17614;SDS011;8926;49.720;6.576;2023-03-23T11:47:06;0.97;;;0.90;;
17614;SDS011;8926;49.720;6.576;2023-03-23T11:49:50;1.17;;;1.07;;
17614;SDS011;8926;49.720;6.576;2023-03-23T11:55:49;1.77;;;1.07;;
17614;SDS011;8926;49.720;6.576;2023-03-23T11:58:20;1.10;;;1.00;;
17614;SDS011;8926;49.720;6.576;2023-03-23T12:00:49;1.53;;;1.13;;
17614;SDS011;8926;49.720;6.576;2023-03-23T12:03:20;1.17;;;1.07;;
17614;SDS011;8926;49.720;6.576;2023-03-23T12:05:54;1.13;;;1.03;;
17614;SDS011;8926;49.720;6.576;2023-03-23T12:16:42;1.53;;;0.90;;
17614;SDS011;8926;49.720;6.576;2023-03-23T12:22:12;1.10;;;1.10;;
17614;SDS011;8926;49.720;6.576;2023-03-23T12:27:48;2.03;;;0.97;;
17614;SDS011;8926;49.720;6.576;2023-03-23T12:30:28;1.33;;;1.23;;
17614;SDS011;8926;49.720;6.576;2023-03-23T12:49:56;1.40;;;1.30;;
17614;SDS011;8926;49.720;6.576;2023-03-23T12:52:41;3.77;;;1.70;;
17614;SDS011;8926;49.720;6.576;2023-03-23T12:55:34;1.30;;;1.20;;
17614;SDS011;8926;49.720;6.576;2023-03-23T12:58:25;1.70;;;1.50;;
17614;SDS011;8926;49.720;6.576;2023-03-23T13:03:33;1.83;;;1.17;;
17614;SDS011;8926;49.720;6.576;2023-03-23T13:06:57;1.33;;;0.97;;
17614;SDS011;8926;49.720;6.576;2023-03-23T13:09:07;1.33;;;1.23;;
17614;SDS011;8926;49.720;6.576;2023-03-23T13:11:38;1.40;;;1.20;;
17614;SDS011;8926;49.720;6.576;2023-03-23T13:17:15;2.57;;;1.53;;
17614;SDS011;8926;49.720;6.576;2023-03-23T13:25:30;3.00;;;1.60;;
17614;SDS011;8926;49.720;6.576;2023-03-23T13:28:13;2.43;;;1.33;;
17614;SDS011;8926;49.720;6.576;2023-03-23T13:33:22;3.00;;;1.10;;
17614;SDS011;8926;49.720;6.576;2023-03-23T13:35:49;1.33;;;1.20;;
17614;SDS011;8926;49.720;6.576;2023-03-23T13:38:26;1.50;;;1.00;;
17614;SDS011;8926;49.720;6.576;2023-03-23T13:40:53;3.13;;;1.50;;
17614;SDS011;8926;49.720;6.576;2023-03-23T13:43:27;3.07;;;1.40;;
17614;SDS011;8926;49.720;6.576;2023-03-23T13:45:52;2.70;;;1.20;;
17614;SDS011;8926;49.720;6.576;2023-03-23T13:48:22;1.60;;;1.50;;
17614;SDS011;8926;49.720;6.576;2023-03-23T13:50:57;1.93;;;1.43;;
17614;SDS011;8926;49.720;6.576;2023-03-23T13:53:28;1.13;;;0.97;;
17614;SDS011;8926;49.720;6.576;2023-03-23T13:56:05;1.60;;;1.20;;
17614;SDS011;8926;49.720;6.576;2023-03-23T13:58:50;1.90;;;1.30;;
17614;SDS011;8926;49.720;6.576;2023-03-23T14:01:33;1.70;;;1.30;;
17614;SDS011;8926;49.720;6.576;2023-03-23T14:04:00;1.87;;;1.37;;
17614;SDS011;8926;49.720;6.576;2023-03-23T14:06:34;1.80;;;1.00;;
17614;SDS011;8926;49.720;6.576;2023-03-23T14:09:04;1.40;;;1.30;;
17614;SDS011;8926;49.720;6.576;2023-03-23T14:11:44;1.47;;;1.37;;
17614;SDS011;8926;49.720;6.576;2023-03-23T14:14:30;2.57;;;1.30;;
17614;SDS011;8926;49.720;6.576;2023-03-23T14:17:41;1.97;;;1.43;;
17614;SDS011;8926;49.720;6.576;2023-03-23T14:19:50;1.57;;;1.30;;
17614;SDS011;8926;49.720;6.576;2023-03-23T14:22:38;2.00;;;1.50;;
17614;SDS011;8926;49.720;6.576;2023-03-23T14:25:16;1.20;;;1.10;;
17614;SDS011;8926;49.720;6.576;2023-03-23T14:27:43;1.20;;;1.10;;
17614;SDS011;8926;49.720;6.576;2023-03-23T14:30:18;1.90;;;1.30;;
17614;SDS011;8926;49.720;6.576;2023-03-23T14:32:46;2.80;;;1.60;;
17614;SDS011;8926;49.720;6.576;2023-03-23T14:35:25;1.53;;;1.20;;
17614;SDS011;8926;49.720;6.576;2023-03-23T14:37:54;1.57;;;1.40;;
17614;SDS011;8926;49.720;6.576;2023-03-23T14:40:20;1.50;;;1.20;;
17614;SDS011;8926;49.720;6.576;2023-03-23T14:42:46;1.80;;;1.20;;
17614;SDS011;8926;49.720;6.576;2023-03-23T14:45:14;2.40;;;1.20;;
17614;SDS011;8926;49.720;6.576;2023-03-23T14:47:45;3.67;;;1.80;;
17614;SDS011;8926;49.720;6.576;2023-03-23T14:50:30;1.73;;;1.30;;
17614;SDS011;8926;49.720;6.576;2023-03-23T14:53:12;1.50;;;1.30;;
17614;SDS011;8926;49.720;6.576;2023-03-23T14:55:42;2.87;;;1.70;;
17614;SDS011;8926;49.720;6.576;2023-03-23T14:58:11;2.37;;;1.03;;
17614;SDS011;8926;49.720;6.576;2023-03-23T15:00:40;2.43;;;1.30;;
17614;SDS011;8926;49.720;6.576;2023-03-23T15:03:11;2.10;;;1.20;;
17614;SDS011;8926;49.720;6.576;2023-03-23T15:05:41;1.63;;;1.27;;
17614;SDS011;8926;49.720;6.576;2023-03-23T15:08:12;2.43;;;1.67;;
17614;SDS011;8926;49.720;6.576;2023-03-23T15:10:50;1.53;;;1.13;;
17614;SDS011;8926;49.720;6.576;2023-03-23T15:13:17;2.37;;;1.60;;
17614;SDS011;8926;49.720;6.576;2023-03-23T15:15:42;1.77;;;1.40;;
17614;SDS011;8926;49.720;6.576;2023-03-23T15:21:18;2.80;;;1.63;;
17614;SDS011;8926;49.720;6.576;2023-03-23T15:23:46;1.63;;;1.47;;
17614;SDS011;8926;49.720;6.576;2023-03-23T15:26:18;1.97;;;1.20;;
17614;SDS011;8926;49.720;6.576;2023-03-23T15:29:17;1.77;;;1.20;;
17614;SDS011;8926;49.720;6.576;2023-03-23T15:31:46;1.83;;;1.10;;
17614;SDS011;8926;49.720;6.576;2023-03-23T15:34:35;1.50;;;1.00;;
17614;SDS011;8926;49.720;6.576;2023-03-23T15:37:04;2.60;;;1.63;;
17614;SDS011;8926;49.720;6.576;2023-03-23T15:39:41;2.33;;;1.63;;
17614;SDS011;8926;49.720;6.576;2023-03-23T15:42:07;2.70;;;1.57;;
17614;SDS011;8926;49.720;6.576;2023-03-23T15:44:54;2.53;;;1.60;;
17614;SDS011;8926;49.720;6.576;2023-03-23T15:47:32;2.53;;;1.53;;
17614;SDS011;8926;49.720;6.576;2023-03-23T15:50:08;2.87;;;1.40;;
17614;SDS011;8926;49.720;6.576;2023-03-23T15:52:42;1.63;;;1.33;;
17614;SDS011;8926;49.720;6.576;2023-03-23T15:57:53;2.93;;;2.20;;
17614;SDS011;8926;49.720;6.576;2023-03-23T16:00:20;2.40;;;2.03;;
17614;SDS011;8926;49.720;6.576;2023-03-23T16:02:49;2.37;;;2.17;;
17614;SDS011;8926;49.720;6.576;2023-03-23T16:05:19;1.47;;;1.37;;
17614;SDS011;8926;49.720;6.576;2023-03-23T16:07:45;1.90;;;1.47;;
17614;SDS011;8926;49.720;6.576;2023-03-23T16:10:14;2.47;;;1.43;;
17614;SDS011;8926;49.720;6.576;2023-03-23T16:12:44;2.67;;;1.30;;
17614;SDS011;8926;49.720;6.576;2023-03-23T16:15:10;3.37;;;1.47;;
17614;SDS011;8926;49.720;6.576;2023-03-23T16:17:36;3.63;;;1.40;;
17614;SDS011;8926;49.720;6.576;2023-03-23T16:20:01;2.30;;;1.40;;
17614;SDS011;8926;49.720;6.576;2023-03-23T16:22:33;2.20;;;1.30;;
17614;SDS011;8926;49.720;6.576;2023-03-23T16:24:59;2.00;;;1.20;;
17614;SDS011;8926;49.720;6.576;2023-03-23T16:27:25;2.30;;;1.40;;
17614;SDS011;8926;49.720;6.576;2023-03-23T16:29:51;1.73;;;1.33;;
17614;SDS011;8926;49.720;6.576;2023-03-23T16:32:16;1.63;;;1.30;;
17614;SDS011;8926;49.720;6.576;2023-03-23T16:34:41;1.67;;;1.13;;
17614;SDS011;8926;49.720;6.576;2023-03-23T16:37:08;1.40;;;1.30;;
17614;SDS011;8926;49.720;6.576;2023-03-23T16:39:35;2.00;;;1.30;;
17614;SDS011;8926;49.720;6.576;2023-03-23T16:42:01;2.00;;;1.50;;
17614;SDS011;8926;49.720;6.576;2023-03-23T16:44:26;1.53;;;1.30;;
17614;SDS011;8926;49.720;6.576;2023-03-23T16:46:51;1.63;;;1.53;;
17614;SDS011;8926;49.720;6.576;2023-03-23T16:49:17;1.03;;;0.93;;
17614;SDS011;8926;49.720;6.576;2023-03-23T16:51:42;2.40;;;1.20;;
17614;SDS011;8926;49.720;6.576;2023-03-23T16:54:07;2.47;;;1.77;;